createdAt,value
2023-06-17T00:02:25.565Z,99483.16
2023-06-17T00:04:53.280Z,99474.72
2023-06-17T00:07:20.729Z,99473.69
2023-06-17T00:09:48.271Z,99470.69
2023-06-17T00:12:16.257Z,99471.31
2023-06-17T00:14:44.717Z,99463.78
2023-06-17T00:17:12.306Z,99464.22
2023-06-17T00:19:41.372Z,99447.94
2023-06-17T00:22:09.794Z,99465.19
2023-06-17T00:24:37.853Z,99464.19
2023-06-17T00:27:05.933Z,99461.16
2023-06-17T00:29:33.367Z,99455.19
2023-06-17T00:32:00.805Z,99462.47
2023-06-17T00:34:28.468Z,99464.03
2023-06-17T00:36:55.919Z,99468.78
2023-06-17T00:39:23.392Z,99467.16
2023-06-17T00:41:51.172Z,99458.22
2023-06-17T00:44:18.858Z,99458.31
2023-06-17T00:46:49.000Z,99459.63
2023-06-17T00:49:17.338Z,99457.34
2023-06-17T00:51:49.054Z,99457.12
2023-06-17T00:54:25.384Z,99452.87
2023-06-17T00:56:54.282Z,99461.81
2023-06-17T00:59:21.749Z,99459.16
2023-06-17T01:01:49.482Z,99441.84
2023-06-17T01:04:17.124Z,99438.44
2023-06-17T01:07:10.899Z,99443.84
2023-06-17T01:09:40.051Z,99437.69
2023-06-17T01:12:08.916Z,99432.78
2023-06-17T01:14:36.776Z,99438.16
2023-06-17T01:17:05.305Z,99438.66
2023-06-17T01:19:36.516Z,99432.84
2023-06-17T01:22:07.330Z,99433.75
2023-06-17T01:24:35.390Z,99438.00
2023-06-17T01:27:05.959Z,99432.72
2023-06-17T01:29:42.431Z,99431.03
2023-06-17T01:32:11.241Z,99436.19
2023-06-17T01:34:55.234Z,99445.84
2023-06-17T01:37:44.239Z,99445.59
2023-06-17T01:40:14.171Z,99440.62
2023-06-17T01:42:46.979Z,99440.38
2023-06-17T01:45:15.019Z,99435.34
2023-06-17T01:47:43.395Z,99441.22
2023-06-17T01:50:11.472Z,99440.38
2023-06-17T01:52:41.345Z,99430.50
2023-06-17T01:55:09.158Z,99429.53
2023-06-17T01:57:36.632Z,99439.16
2023-06-17T02:00:05.559Z,99434.94
2023-06-17T02:02:33.277Z,99437.50
2023-06-17T02:05:02.242Z,99437.53
2023-06-17T02:07:30.134Z,99427.81
2023-06-17T02:09:57.939Z,99432.59
2023-06-17T02:12:26.133Z,99433.56
2023-06-17T02:14:53.734Z,99433.56
2023-06-17T02:17:21.391Z,99438.66
2023-06-17T02:19:49.244Z,99444.94
2023-06-17T02:22:16.946Z,99438.06
2023-06-17T02:24:44.450Z,99437.19
2023-06-17T02:27:12.058Z,99446.78
2023-06-17T02:29:40.120Z,99440.31
2023-06-17T02:32:10.624Z,99438.31
2023-06-17T02:34:39.597Z,99439.47
2023-06-17T02:37:08.675Z,99445.75
2023-06-17T02:39:37.368Z,99443.66
2023-06-17T02:42:05.205Z,99443.38
2023-06-17T02:44:32.976Z,99439.41
2023-06-17T02:47:00.668Z,99448.19
2023-06-17T02:49:28.316Z,99453.75
2023-06-17T02:51:56.046Z,99456.59
2023-06-17T02:54:23.534Z,99452.94
2023-06-17T02:56:51.359Z,99451.53
2023-06-17T02:59:19.184Z,99456.81
2023-06-17T03:01:47.455Z,99460.56
2023-06-17T03:04:15.374Z,99451.31
2023-06-17T03:06:43.265Z,99453.44
2023-06-17T03:09:11.323Z,99459.13
2023-06-17T03:11:40.803Z,99464.88
2023-06-17T03:14:08.912Z,99464.59
2023-06-17T03:16:37.351Z,99469.28
2023-06-17T03:19:05.007Z,99461.75
2023-06-17T03:21:36.866Z,99478.59
2023-06-17T03:24:04.986Z,99478.84
2023-06-17T03:26:32.977Z,99472.69
2023-06-17T03:29:00.434Z,99471.75
2023-06-17T03:31:27.853Z,99467.06
2023-06-17T03:33:55.978Z,99469.31
2023-06-17T03:36:26.355Z,99477.13
2023-06-17T03:38:54.118Z,99470.09
2023-06-17T03:41:22.237Z,99476.47
2023-06-17T03:43:51.037Z,99474.63
2023-06-17T03:46:19.558Z,99481.91
2023-06-17T03:48:48.014Z,99469.75
2023-06-17T03:51:15.901Z,99482.41
2023-06-17T03:53:43.738Z,99487.94
2023-06-17T03:56:11.584Z,99488.78
2023-06-17T03:58:39.597Z,99495.91
2023-06-17T04:01:13.943Z,99492.63
2023-06-17T04:03:43.209Z,99491.66
2023-06-17T04:06:11.322Z,99483.03
2023-06-17T04:08:38.752Z,99493.03
2023-06-17T04:11:06.946Z,99493.88
2023-06-17T04:13:35.247Z,99494.19
2023-06-17T04:16:03.495Z,99495.03
2023-06-17T04:18:31.525Z,99494.44
2023-06-17T04:21:01.167Z,99501.59
2023-06-17T04:23:29.101Z,99511.53
2023-06-17T04:25:57.952Z,99497.87
2023-06-17T04:28:25.689Z,99511.78
2023-06-17T04:30:54.190Z,99502.91
2023-06-17T04:33:25.806Z,99509.38
2023-06-17T04:35:55.060Z,99508.56
2023-06-17T04:38:24.307Z,99503.16
2023-06-17T04:40:54.647Z,99521.41
2023-06-17T04:43:24.289Z,99513.78
2023-06-17T04:45:52.938Z,99510.25
2023-06-17T04:48:22.000Z,99512.81
2023-06-17T04:50:49.567Z,99515.69
2023-06-17T04:53:17.562Z,99520.16
2023-06-17T04:55:46.702Z,99515.34
2023-06-17T04:58:15.400Z,99522.59
2023-06-17T05:00:43.231Z,99520.28
2023-06-17T05:03:11.887Z,99511.97
2023-06-17T05:05:39.609Z,99522.19
2023-06-17T05:08:07.978Z,99518.13
2023-06-17T05:10:35.809Z,99522.28
2023-06-17T05:13:03.899Z,99522.22
2023-06-17T05:15:32.376Z,99528.87
2023-06-17T05:17:59.851Z,99529.91
2023-06-17T05:20:27.636Z,99530.16
2023-06-17T05:22:55.778Z,99535.16
2023-06-17T05:25:23.517Z,99529.13
2023-06-17T05:27:51.672Z,99527.28
2023-06-17T05:30:20.172Z,99527.06
2023-06-17T05:32:48.311Z,99527.78
2023-06-17T05:35:15.845Z,99536.91
2023-06-17T05:37:43.596Z,99536.41
2023-06-17T05:40:11.421Z,99545.28
2023-06-17T05:42:39.471Z,99541.53
2023-06-17T05:45:08.693Z,99547.66
2023-06-17T05:47:36.248Z,99552.50
2023-06-17T05:50:04.062Z,99549.63
2023-06-17T05:52:32.605Z,99554.44
2023-06-17T05:55:00.714Z,99555.00
2023-06-17T05:57:28.218Z,99555.47
2023-06-17T05:59:56.294Z,99565.69
2023-06-17T06:02:23.822Z,99558.19
2023-06-17T06:04:51.625Z,99569.69
2023-06-17T06:07:19.066Z,99562.62
2023-06-17T06:09:46.634Z,99551.44
2023-06-17T06:12:17.582Z,99569.56
2023-06-17T06:14:45.102Z,99564.31
2023-06-17T06:17:12.470Z,99563.78
2023-06-17T06:19:40.270Z,99560.53
2023-06-17T06:22:07.806Z,99552.09
2023-06-17T06:24:35.865Z,99545.16
2023-06-17T06:27:04.124Z,99545.22
2023-06-17T06:29:33.241Z,99544.34
2023-06-17T06:32:00.725Z,99556.06
2023-06-17T06:34:30.658Z,99540.75
2023-06-17T06:36:59.374Z,99557.75
2023-06-17T06:39:27.212Z,99537.63
2023-06-17T06:41:55.549Z,99543.94
2023-06-17T06:44:24.189Z,99549.91
2023-06-17T06:46:57.334Z,99536.84
2023-06-17T06:49:25.004Z,99547.41
2023-06-17T06:51:52.486Z,99546.44
2023-06-17T06:54:20.531Z,99546.59
2023-06-17T06:56:48.308Z,99551.56
2023-06-17T06:59:16.054Z,99543.00
2023-06-17T07:01:43.568Z,99547.50
2023-06-17T07:04:11.694Z,99551.06
2023-06-17T07:06:39.281Z,99558.91
2023-06-17T07:09:07.500Z,99557.28
2023-06-17T07:11:36.314Z,99557.38
2023-06-17T07:14:04.485Z,99555.59
2023-06-17T07:16:33.510Z,99568.50
2023-06-17T07:19:04.603Z,99552.16
2023-06-17T07:21:32.761Z,99554.72
2023-06-17T07:24:00.795Z,99553.78
2023-06-17T07:26:28.845Z,99548.47
2023-06-17T07:28:56.628Z,99552.91
2023-06-17T07:31:24.740Z,99562.28
2023-06-17T07:33:57.885Z,99556.34
2023-06-17T07:36:27.254Z,99550.75
2023-06-17T07:38:56.818Z,99551.06
2023-06-17T07:41:26.615Z,99546.09
2023-06-17T07:43:54.062Z,99542.63
2023-06-17T07:46:21.925Z,99548.12
2023-06-17T07:48:49.452Z,99554.31
2023-06-17T07:51:16.963Z,99532.44
2023-06-17T07:53:44.711Z,99535.13
2023-06-17T07:56:12.227Z,99539.62
2023-06-17T07:58:39.625Z,99535.25
2023-06-17T08:01:07.362Z,99538.25
2023-06-17T08:03:35.260Z,99532.06
2023-06-17T08:06:02.797Z,99546.25
2023-06-17T08:08:30.642Z,99529.97
2023-06-17T08:10:58.391Z,99536.34
2023-06-17T08:13:25.863Z,99531.22
2023-06-17T08:15:53.396Z,99534.09
2023-06-17T08:18:24.046Z,99536.69
2023-06-17T08:20:52.050Z,99541.22
2023-06-17T08:23:19.566Z,99544.59
2023-06-17T08:25:47.879Z,99537.13
2023-06-17T08:28:15.358Z,99536.19
2023-06-17T08:30:42.804Z,99547.69
2023-06-17T08:33:10.575Z,99542.13
2023-06-17T08:35:40.312Z,99540.62
2023-06-17T08:38:07.715Z,99544.13
2023-06-17T08:40:36.668Z,99543.13
2023-06-17T08:43:04.616Z,99544.03
2023-06-17T08:45:32.078Z,99539.16
2023-06-17T08:47:59.906Z,99537.00
2023-06-17T08:50:28.972Z,99534.91
2023-06-17T08:52:56.608Z,99538.03
2023-06-17T08:55:24.292Z,99545.78
2023-06-17T08:57:52.389Z,99535.22
2023-06-17T09:00:20.392Z,99530.59
2023-06-17T09:02:48.763Z,99541.66
2023-06-17T09:05:16.927Z,99530.94
2023-06-17T09:07:44.861Z,99540.84
2023-06-17T09:10:16.104Z,99545.81
2023-06-17T09:12:43.491Z,99540.91
2023-06-17T09:15:16.600Z,99530.19
2023-06-17T09:17:47.521Z,99547.41
2023-06-17T09:20:16.903Z,99527.06
2023-06-17T09:22:47.303Z,99529.81
2023-06-17T09:25:16.311Z,99532.41
2023-06-17T09:28:02.583Z,99530.84
2023-06-17T09:30:37.593Z,99535.81
2023-06-17T09:33:17.855Z,99543.16
2023-06-17T09:35:46.051Z,99542.63
2023-06-17T09:38:16.786Z,99538.47
2023-06-17T09:40:44.182Z,99537.97
2023-06-17T09:43:26.723Z,99543.63
2023-06-17T09:46:00.982Z,99552.91
2023-06-17T09:48:33.464Z,99556.34
2023-06-17T09:51:01.212Z,99541.84
2023-06-17T09:53:30.733Z,99541.72
2023-06-17T09:56:00.079Z,99548.84
2023-06-17T09:58:30.408Z,99538.94
2023-06-17T10:00:59.111Z,99533.72
2023-06-17T10:03:26.942Z,99532.91
2023-06-17T10:05:58.427Z,99537.03
2023-06-17T10:08:26.322Z,99537.91
2023-06-17T10:10:54.734Z,99541.69
2023-06-17T10:13:22.987Z,99543.34
2023-06-17T10:15:51.298Z,99540.88
2023-06-17T10:18:20.217Z,99542.56
2023-06-17T10:20:49.393Z,99535.09
2023-06-17T10:23:20.161Z,99549.94
2023-06-17T10:25:47.976Z,99538.31
2023-06-17T10:28:17.133Z,99545.97
2023-06-17T10:30:46.172Z,99556.78
2023-06-17T10:33:13.855Z,99544.88
2023-06-17T10:35:43.034Z,99540.31
2023-06-17T10:38:11.882Z,99556.34
2023-06-17T10:40:48.557Z,99553.63
2023-06-17T10:43:17.490Z,99558.00
2023-06-17T10:45:52.334Z,99553.81
2023-06-17T10:48:30.930Z,99550.44
2023-06-17T10:51:02.055Z,99553.59
2023-06-17T10:53:31.961Z,99550.59
2023-06-17T10:56:01.062Z,99550.59
2023-06-17T10:58:32.732Z,99555.03
2023-06-17T11:01:08.816Z,99551.19
2023-06-17T11:03:37.335Z,99555.91
2023-06-17T11:06:06.820Z,99544.88
2023-06-17T11:08:35.780Z,99545.34
2023-06-17T11:11:21.776Z,99540.28
2023-06-17T11:13:52.585Z,99534.00
2023-06-17T11:16:20.153Z,99539.75
2023-06-17T11:18:49.990Z,99528.44
2023-06-17T11:21:19.340Z,99529.56
2023-06-17T11:23:46.778Z,99539.16
2023-06-17T11:26:14.324Z,99536.16
2023-06-17T11:28:42.537Z,99539.78
2023-06-17T11:31:10.062Z,99544.03
2023-06-17T11:33:39.937Z,99545.41
2023-06-17T11:36:09.721Z,99545.19
2023-06-17T11:38:37.190Z,99535.44
2023-06-17T11:41:04.897Z,99541.28
2023-06-17T11:43:32.790Z,99536.69
2023-06-17T11:46:00.759Z,99536.47
2023-06-17T11:48:34.937Z,99544.03
2023-06-17T11:51:02.989Z,99524.16
2023-06-17T11:53:38.019Z,99523.81
2023-06-17T11:56:06.938Z,99531.22
2023-06-17T11:58:39.894Z,99531.84
2023-06-17T12:01:10.971Z,99534.44
2023-06-17T12:03:38.864Z,99524.94
2023-06-17T12:06:06.744Z,99527.50
2023-06-17T12:08:35.448Z,99532.75
2023-06-17T12:11:24.019Z,99524.31
2023-06-17T12:13:51.837Z,99524.69
2023-06-17T12:16:27.207Z,99516.31
2023-06-17T12:18:54.750Z,99528.22
2023-06-17T12:21:22.903Z,99526.00
2023-06-17T12:23:52.392Z,99515.81
2023-06-17T12:26:26.661Z,99515.88
2023-06-17T12:28:55.418Z,99510.22
2023-06-17T12:31:24.236Z,99510.84
2023-06-17T12:33:51.920Z,99514.13
2023-06-17T12:36:19.637Z,99511.31
2023-06-17T12:38:47.485Z,99505.59
2023-06-17T12:41:15.916Z,99505.34
2023-06-17T12:43:43.600Z,99496.84
2023-06-17T12:46:11.102Z,99502.72
2023-06-17T12:48:38.590Z,99502.38
2023-06-17T12:51:06.283Z,99510.91
2023-06-17T12:53:33.720Z,99495.19
2023-06-17T12:56:02.442Z,99502.66
2023-06-17T12:58:30.159Z,99503.13
2023-06-17T13:00:58.055Z,99498.59
2023-06-17T13:03:25.488Z,99486.56
2023-06-17T13:05:53.209Z,99494.91
2023-06-17T13:08:20.645Z,99501.31
2023-06-17T13:10:48.182Z,99504.13
2023-06-17T13:13:15.938Z,99511.84
2023-06-17T13:15:43.379Z,99506.75
2023-06-17T13:18:10.905Z,99504.22
2023-06-17T13:20:38.664Z,99510.78
2023-06-17T13:23:06.663Z,99493.62
2023-06-17T13:25:34.041Z,99493.78
2023-06-17T13:28:02.680Z,99495.41
2023-06-17T13:30:31.744Z,99497.53
2023-06-17T13:32:59.252Z,99501.81
2023-06-17T13:35:26.945Z,99503.44
2023-06-17T13:37:56.083Z,99509.16
2023-06-17T13:40:23.818Z,99499.88
2023-06-17T13:42:51.761Z,99499.69
2023-06-17T13:45:19.688Z,99496.97
2023-06-17T13:47:48.272Z,99487.28
2023-06-17T13:50:15.950Z,99497.31
2023-06-17T13:52:43.469Z,99497.78
2023-06-17T13:55:10.902Z,99499.84
2023-06-17T13:57:38.581Z,99503.16
2023-06-17T14:00:06.696Z,99490.87
2023-06-17T14:02:34.446Z,99492.22
2023-06-17T14:05:02.106Z,99496.66
2023-06-17T14:07:29.557Z,99504.38
2023-06-17T14:09:57.308Z,99493.38
2023-06-17T14:12:24.789Z,99495.31
2023-06-17T14:14:52.180Z,99494.03
2023-06-17T14:17:19.881Z,99501.25
2023-06-17T14:19:47.295Z,99499.78
2023-06-17T14:22:14.706Z,99503.06
2023-06-17T14:24:43.019Z,99497.37
2023-06-17T14:27:14.103Z,99497.50
2023-06-17T14:29:41.554Z,99499.81
2023-06-17T14:32:09.354Z,99497.81
2023-06-17T14:34:36.760Z,99498.47
2023-06-17T14:37:04.357Z,99501.47
2023-06-17T14:39:32.135Z,99496.22
2023-06-17T14:41:59.572Z,99484.69
2023-06-17T14:44:26.977Z,99486.12
2023-06-17T14:46:54.721Z,99486.59
2023-06-17T14:49:22.150Z,99496.84
2023-06-17T14:51:51.627Z,99494.19
2023-06-17T14:54:19.441Z,99480.25
2023-06-17T14:56:46.914Z,99482.22
2023-06-17T14:59:14.935Z,99482.63
2023-06-17T15:01:42.654Z,99482.09
2023-06-17T15:04:13.390Z,99488.13
2023-06-17T15:06:42.221Z,99491.31
2023-06-17T15:09:28.810Z,99486.88
2023-06-17T15:12:04.459Z,99485.22
2023-06-17T15:14:34.932Z,99492.75
2023-06-17T15:17:02.838Z,99489.69
2023-06-17T15:19:31.803Z,99493.22
2023-06-17T15:21:59.770Z,99488.75
2023-06-17T15:24:27.340Z,99491.91
2023-06-17T15:26:54.778Z,99483.34
2023-06-17T15:29:22.518Z,99490.81
2023-06-17T15:31:49.934Z,99483.28
2023-06-17T15:34:17.339Z,99496.72
2023-06-17T15:36:45.077Z,99483.91
2023-06-17T15:39:32.578Z,99482.00
2023-06-17T15:42:00.342Z,99489.53
2023-06-17T15:44:29.114Z,99491.03
2023-06-17T15:46:56.569Z,99480.16
2023-06-17T15:49:24.250Z,99484.63
2023-06-17T15:51:51.668Z,99484.66
2023-06-17T15:54:19.410Z,99476.94
2023-06-17T15:56:47.673Z,99489.16
2023-06-17T15:59:15.758Z,99489.69
2023-06-17T16:01:43.576Z,99481.72
2023-06-17T16:04:33.382Z,99503.66
2023-06-17T16:07:05.285Z,99492.88
2023-06-17T16:09:35.455Z,99494.50
2023-06-17T16:12:04.163Z,99490.13
2023-06-17T16:14:33.527Z,99496.84
2023-06-17T16:17:02.487Z,99487.44
2023-06-17T16:19:32.704Z,99486.38
2023-06-17T16:22:00.912Z,99500.31
2023-06-17T16:24:28.978Z,99496.56
2023-06-17T16:26:57.159Z,99505.28
2023-06-17T16:29:24.577Z,99504.00
2023-06-17T16:31:52.252Z,99499.19
2023-06-17T16:34:19.723Z,99501.22
2023-06-17T16:36:47.151Z,99506.66
2023-06-17T16:39:14.848Z,99516.31
2023-06-17T16:41:42.329Z,99510.91
2023-06-17T16:44:09.822Z,99521.63
2023-06-17T16:46:37.805Z,99521.34
2023-06-17T16:49:05.799Z,99516.84
2023-06-17T16:51:33.425Z,99528.87
2023-06-17T16:54:03.760Z,99531.50
2023-06-17T16:56:33.047Z,99531.53
2023-06-17T16:59:02.126Z,99532.78
2023-06-17T17:01:30.210Z,99533.69
2023-06-17T17:04:01.157Z,99531.97
2023-06-17T17:06:28.861Z,99538.88
2023-06-17T17:08:56.399Z,99544.22
2023-06-17T17:11:23.789Z,99547.72
2023-06-17T17:13:51.750Z,99546.50
2023-06-17T17:16:19.407Z,99548.81
2023-06-17T17:18:47.122Z,99546.47
2023-06-17T17:21:14.961Z,99546.19
2023-06-17T17:23:42.580Z,99554.00
2023-06-17T17:26:13.718Z,99541.22
2023-06-17T17:28:42.107Z,99557.34
2023-06-17T17:31:10.021Z,99552.84
2023-06-17T17:33:37.781Z,99556.00
2023-06-17T17:36:06.153Z,99557.44
2023-06-17T17:38:33.536Z,99554.62
2023-06-17T17:41:01.885Z,99560.66
2023-06-17T17:43:30.820Z,99562.31
2023-06-17T17:45:58.853Z,99558.56
2023-06-17T17:48:26.519Z,99563.50
2023-06-17T17:50:54.240Z,99557.84
2023-06-17T17:53:21.963Z,99559.75
2023-06-17T17:55:49.435Z,99562.38
2023-06-17T17:58:17.342Z,99563.97
2023-06-17T18:00:44.807Z,99563.31
2023-06-17T18:03:12.753Z,99570.50
2023-06-17T18:05:40.542Z,99573.13
2023-06-17T18:08:07.982Z,99571.22
2023-06-17T18:10:35.743Z,99575.13
2023-06-17T18:13:03.368Z,99580.75
2023-06-17T18:15:30.798Z,99586.31
2023-06-17T18:17:59.198Z,99588.47
2023-06-17T18:20:26.919Z,99592.06
2023-06-17T18:22:54.383Z,99597.84
2023-06-17T18:25:22.126Z,99601.28
2023-06-17T18:27:49.557Z,99610.56
2023-06-17T18:30:16.982Z,99606.00
2023-06-17T18:32:44.731Z,99605.97
2023-06-17T18:35:12.204Z,99607.41
2023-06-17T18:37:41.785Z,99609.19
2023-06-17T18:40:10.274Z,99612.94
2023-06-17T18:42:37.736Z,99616.47
2023-06-17T18:45:09.514Z,99620.06
2023-06-17T18:47:37.982Z,99627.69
2023-06-17T18:50:07.150Z,99624.38
2023-06-17T18:52:34.703Z,99620.87
2023-06-17T18:55:02.399Z,99627.53
2023-06-17T18:57:30.650Z,99636.63
2023-06-17T18:59:58.158Z,99635.72
2023-06-17T19:02:28.131Z,99641.00
2023-06-17T19:04:55.755Z,99645.50
2023-06-17T19:07:23.180Z,99640.53
2023-06-17T19:09:51.427Z,99648.03
2023-06-17T19:12:19.073Z,99657.19
2023-06-17T19:14:47.055Z,99656.97
2023-06-17T19:17:15.072Z,99663.97
2023-06-17T19:19:42.630Z,99657.72
2023-06-17T19:22:10.382Z,99667.72
2023-06-17T19:24:38.153Z,99671.34
2023-06-17T19:27:05.899Z,99669.69
2023-06-17T19:29:34.792Z,99677.59
2023-06-17T19:32:02.885Z,99679.38
2023-06-17T19:34:30.285Z,99687.28
2023-06-17T19:36:57.702Z,99691.66
2023-06-17T19:39:25.391Z,99699.56
2023-06-17T19:41:52.824Z,99699.53
2023-06-17T19:44:20.238Z,99694.28
2023-06-17T19:46:48.025Z,99698.72
2023-06-17T19:49:15.860Z,99696.91
2023-06-17T19:51:43.281Z,99700.28
2023-06-17T19:54:11.036Z,99692.38
2023-06-17T19:56:38.445Z,99686.19
2023-06-17T19:59:05.870Z,99696.59
2023-06-17T20:01:33.612Z,99693.28
2023-06-17T20:04:01.438Z,99688.84
2023-06-17T20:06:29.986Z,99690.69
2023-06-17T20:08:57.418Z,99693.28
2023-06-17T20:11:26.908Z,99688.16
2023-06-17T20:13:54.364Z,99684.66
2023-06-17T20:16:22.301Z,99689.81
2023-06-17T20:18:50.006Z,99692.53
2023-06-17T20:21:17.625Z,99693.19
2023-06-17T20:23:45.102Z,99687.97
2023-06-17T20:26:12.829Z,99695.78
2023-06-17T20:28:40.232Z,99696.66
2023-06-17T20:31:07.862Z,99690.25
2023-06-17T20:33:36.556Z,99699.25
2023-06-17T20:36:06.173Z,99695.66
2023-06-17T20:38:33.648Z,99691.41
2023-06-17T20:41:01.464Z,99688.97
2023-06-17T20:43:29.061Z,99692.56
2023-06-17T20:45:57.083Z,99691.66
2023-06-17T20:48:24.838Z,99686.38
2023-06-17T20:50:52.309Z,99693.44
2023-06-17T20:53:19.715Z,99693.38
2023-06-17T20:55:47.553Z,99680.25
2023-06-17T20:58:16.082Z,99691.62
2023-06-17T21:00:43.553Z,99679.38
2023-06-17T21:03:34.383Z,99679.38
2023-06-17T21:06:01.860Z,99677.62
2023-06-17T21:08:29.589Z,99688.13
2023-06-17T21:10:57.277Z,99692.75
2023-06-17T21:13:24.708Z,99687.19
2023-06-17T21:15:52.501Z,99689.72
2023-06-17T21:18:21.493Z,99690.28
2023-06-17T21:20:51.308Z,99688.44
2023-06-17T21:23:18.987Z,99692.44
2023-06-17T21:25:46.434Z,99694.78
2023-06-17T21:28:13.838Z,99694.53
2023-06-17T21:30:41.759Z,99688.97
2023-06-17T21:33:09.326Z,99693.28
2023-06-17T21:35:36.817Z,99690.28
2023-06-17T21:38:04.515Z,99691.06
2023-06-17T21:40:31.958Z,99692.69
2023-06-17T21:42:59.359Z,99693.00
2023-06-17T21:45:27.085Z,99699.84
2023-06-17T21:47:54.532Z,99694.41
2023-06-17T21:50:22.229Z,99695.13
2023-06-17T21:52:50.126Z,99706.63
2023-06-17T21:55:17.530Z,99702.81
2023-06-17T21:57:45.332Z,99698.44
2023-06-17T22:00:15.720Z,99702.16
2023-06-17T22:02:43.504Z,99707.47
2023-06-17T22:05:11.104Z,99700.16
2023-06-17T22:07:39.072Z,99706.31
2023-06-17T22:10:07.438Z,99708.09
2023-06-17T22:12:34.981Z,99702.50
2023-06-17T22:15:04.106Z,99701.53
2023-06-17T22:17:33.086Z,99692.84
2023-06-17T22:20:00.530Z,99699.91
2023-06-17T22:22:27.896Z,99703.97
2023-06-17T22:24:55.559Z,99698.28
2023-06-17T22:27:22.966Z,99698.38
2023-06-17T22:29:50.546Z,99705.22
2023-06-17T22:32:18.278Z,99702.41
2023-06-17T22:34:45.772Z,99713.69
2023-06-17T22:37:13.177Z,99712.41
2023-06-17T22:39:40.893Z,99707.16
2023-06-17T22:42:08.299Z,99710.34
2023-06-17T22:44:35.796Z,99708.50
2023-06-17T22:47:03.686Z,99705.66
2023-06-17T22:49:32.445Z,99708.31
2023-06-17T22:51:59.896Z,99710.56
2023-06-17T22:54:27.543Z,99713.31
2023-06-17T22:56:54.959Z,99704.00
2023-06-17T22:59:22.345Z,99710.22
2023-06-17T23:01:50.112Z,99716.00
2023-06-17T23:04:17.565Z,99720.72
2023-06-17T23:06:45.001Z,99715.44
2023-06-17T23:09:12.720Z,99717.56
2023-06-17T23:11:40.130Z,99706.69
2023-06-17T23:14:09.325Z,99713.53
2023-06-17T23:16:37.248Z,99707.59
2023-06-17T23:19:04.691Z,99711.13
2023-06-17T23:21:34.962Z,99721.13
2023-06-17T23:24:04.450Z,99713.22
2023-06-17T23:26:33.650Z,99718.75
2023-06-17T23:29:01.071Z,99717.31
2023-06-17T23:31:29.976Z,99714.78
2023-06-17T23:33:57.452Z,99711.13
2023-06-17T23:36:24.892Z,99718.28
2023-06-17T23:38:52.855Z,99721.44
2023-06-17T23:41:20.348Z,99720.91
2023-06-17T23:43:47.877Z,99719.69
2023-06-17T23:46:16.834Z,99723.34
2023-06-17T23:48:44.356Z,99728.13
2023-06-17T23:51:11.839Z,99723.00
2023-06-17T23:53:39.572Z,99728.13
2023-06-17T23:56:07.010Z,99734.63
2023-06-17T23:58:34.472Z,99723.41
